Time;durP1;ratioP1;P1;durP2;ratioP2;P2;SDS_P1;SDS_P2;PMS_P1;PMS_P2;Temp;Humidity;BMP_temperature;BMP_pressure;BME280_temperature;BME280_humidity;BME280_pressure;Samples;Min_cycle;Max_cycle;Signal;HPM_P1;HPM_P2
2022/03/27 00:02:18;;;;;;;26.70;11.40;;;11.90;85.00;;;;;;5115461;28;20078;-43
2022/03/27 00:04:44;;;;;;;19.48;12.55;;;11.90;86.00;;;;;;5118526;28;20020;-43
2022/03/27 00:07:09;;;;;;;19.85;11.32;;;11.70;84.10;;;;;;5116173;28;20483;-43
2022/03/27 00:09:35;;;;;;;19.60;12.13;;;11.70;85.30;;;;;;5115233;28;20069;-46
2022/03/27 00:12:00;;;;;;;18.90;11.77;;;11.70;85.50;;;;;;5114597;28;20367;-46
2022/03/27 00:14:26;;;;;;;17.52;12.93;;;11.70;86.80;;;;;;5114583;28;20034;-44
2022/03/27 00:16:51;;;;;;;18.42;12.27;;;11.60;84.80;;;;;;5114266;28;20024;-43
2022/03/27 00:19:17;;;;;;;22.08;12.45;;;11.40;84.40;;;;;;5114697;28;20038;-42
2022/03/27 00:21:44;;;;;;;17.65;12.43;;;11.40;85.10;;;;;;5114805;28;20032;-42
2022/03/27 00:24:09;;;;;;;17.65;12.10;;;11.30;85.60;;;;;;5114794;28;20031;-46
2022/03/27 00:26:35;;;;;;;20.77;13.38;;;11.30;86.00;;;;;;5114600;28;20031;-41
2022/03/27 00:29:01;;;;;;;24.23;13.20;;;11.10;86.50;;;;;;5114716;28;20063;-43
2022/03/27 00:31:27;;;;;;;23.02;12.60;;;11.10;86.90;;;;;;5113715;28;20027;-46
2022/03/27 00:33:53;;;;;;;25.55;12.80;;;11.10;87.60;;;;;;5114635;28;20033;-45
2022/03/27 00:36:20;;;;;;;28.52;14.43;;;11.00;88.00;;;;;;5113772;28;20034;-44
2022/03/27 00:38:46;;;;;;;20.67;12.23;;;10.90;88.50;;;;;;5114221;28;20024;-44
2022/03/27 00:41:14;;;;;;;22.75;12.40;;;10.90;88.80;;;;;;5114380;28;20110;-42
2022/03/27 00:43:39;;;;;;;19.13;12.77;;;10.90;89.20;;;;;;5114152;28;20079;-42
2022/03/27 00:46:06;;;;;;;24.23;14.35;;;10.90;89.50;;;;;;5114461;28;20027;-47
2022/03/27 00:48:32;;;;;;;20.10;12.75;;;10.90;89.90;;;;;;5113682;28;20483;-44
2022/03/27 00:50:58;;;;;;;19.00;13.65;;;10.90;90.00;;;;;;5113999;28;20087;-45
2022/03/27 00:53:23;;;;;;;22.95;13.80;;;11.00;90.20;;;;;;5113966;28;20034;-39
2022/03/27 00:55:49;;;;;;;22.48;13.45;;;11.00;90.30;;;;;;5113165;28;20072;-46
2022/03/27 00:58:16;;;;;;;24.35;13.68;;;11.00;90.40;;;;;;5113519;28;20066;-44
2022/03/27 01:01:09;;;;;;;22.23;13.48;;;10.90;90.60;;;;;;5113642;28;20023;-44
2022/03/27 01:03:36;;;;;;;21.10;13.10;;;10.80;90.80;;;;;;5113729;28;20015;-43
2022/03/27 01:06:02;;;;;;;21.48;12.98;;;10.80;91.00;;;;;;5113725;28;20027;-40
2022/03/27 01:11:17;;;;;;;;;;;10.60;91.60;;;;;;5114102;28;20114;-40
2022/03/27 01:14:03;;;;;;;23.02;13.40;;;10.60;91.80;;;;;;5113617;28;19911;-46
2022/03/27 01:16:37;;;;;;;21.40;13.85;;;10.60;91.90;;;;;;5094950;28;20122;-45
2022/03/27 01:19:04;;;;;;;20.15;14.07;;;10.50;92.20;;;;;;5113810;28;20024;-46
2022/03/27 01:21:30;;;;;;;27.92;14.63;;;10.50;92.40;;;;;;5113373;28;20076;-39
2022/03/27 01:23:56;;;;;;;20.42;14.93;;;10.40;92.60;;;;;;5113873;28;20016;-45
2022/03/27 01:26:23;;;;;;;24.70;14.38;;;10.40;92.80;;;;;;5113299;28;20039;-45
2022/03/27 01:28:49;;;;;;;25.25;14.55;;;10.40;93.00;;;;;;5113573;28;20585;-45
2022/03/27 01:31:15;;;;;;;24.00;14.70;;;10.40;93.20;;;;;;5115240;28;20028;-43
2022/03/27 01:33:41;;;;;;;25.50;14.73;;;10.40;93.30;;;;;;5116020;28;20084;-46
2022/03/27 01:36:06;;;;;;;25.70;16.15;;;10.40;93.40;;;;;;5117380;28;20434;-43
2022/03/27 01:38:32;;;;;;;22.15;14.00;;;10.30;93.60;;;;;;5117062;28;20023;-43
2022/03/27 01:40:57;;;;;;;23.65;14.23;;;10.30;93.80;;;;;;5117631;28;20026;-44
2022/03/27 01:43:23;;;;;;;25.15;14.82;;;10.30;93.90;;;;;;5113436;28;20015;-41
2022/03/27 01:45:49;;;;;;;24.70;15.45;;;10.30;94.00;;;;;;5113321;28;20023;-43
2022/03/27 01:48:15;;;;;;;21.75;13.27;;;10.40;94.10;;;;;;5112438;28;20029;-42
2022/03/27 01:50:40;;;;;;;25.83;14.25;;;10.30;94.20;;;;;;5112962;28;20043;-45
2022/03/27 01:53:06;;;;;;;18.80;14.20;;;10.20;94.50;;;;;;5113050;28;20495;-44
2022/03/27 01:55:31;;;;;;;21.88;14.57;;;10.30;94.70;;;;;;5113242;28;20379;-43
2022/03/27 01:57:57;;;;;;;21.60;13.98;;;10.20;94.90;;;;;;5112721;28;20495;-43
2022/03/27 02:00:22;;;;;;;20.80;14.68;;;10.20;95.10;;;;;;5112936;28;20023;-43
2022/03/27 02:02:48;;;;;;;22.67;13.98;;;10.10;95.30;;;;;;5115771;28;20127;-44
2022/03/27 02:05:13;;;;;;;21.27;14.30;;;10.10;95.40;;;;;;5115713;28;20391;-39
2022/03/27 02:07:44;;;;;;;19.40;13.68;;;10.10;95.70;;;;;;5116938;28;20093;-39
2022/03/27 02:10:10;;;;;;;20.05;14.45;;;10.00;95.80;;;;;;5122035;28;20020;-43
2022/03/27 02:12:36;;;;;;;25.90;13.50;;;10.00;95.90;;;;;;5121476;28;20035;-42
2022/03/27 02:15:07;;;;;;;23.40;13.75;;;10.00;96.10;;;;;;5120537;28;20383;-39
2022/03/27 02:17:39;;;;;;;18.45;14.05;;;9.90;96.30;;;;;;5119306;28;20034;-43
2022/03/27 02:20:06;;;;;;;23.50;14.13;;;9.80;96.60;;;;;;5122044;28;20101;-43
2022/03/27 02:22:32;;;;;;;24.95;13.73;;;9.80;96.80;;;;;;5119533;28;20525;-45
2022/03/27 02:24:57;;;;;;;24.38;14.45;;;9.80;96.90;;;;;;5117166;28;20032;-50
2022/03/27 02:27:23;;;;;;;23.52;15.20;;;9.80;97.00;;;;;;5137604;22;20043;-40
2022/03/27 02:29:48;;;;;;;24.58;14.35;;;9.80;97.10;;;;;;5115802;28;20027;-43
2022/03/27 02:32:14;;;;;;;21.45;14.48;;;9.80;97.20;;;;;;5115769;28;20135;-42
2022/03/27 02:34:40;;;;;;;20.98;13.60;;;9.70;97.40;;;;;;5115786;28;20519;-41
2022/03/27 02:37:06;;;;;;;22.45;14.40;;;9.70;97.60;;;;;;5115313;28;20054;-43
2022/03/27 02:39:32;;;;;;;26.40;15.45;;;9.70;97.80;;;;;;5115770;28;20012;-43
2022/03/27 02:41:58;;;;;;;29.88;14.20;;;9.70;97.80;;;;;;5115293;28;20077;-41
2022/03/27 02:44:24;;;;;;;21.23;14.55;;;9.70;98.00;;;;;;5115643;28;20060;-41
2022/03/27 02:46:50;;;;;;;22.25;15.73;;;9.60;98.20;;;;;;5096990;28;20019;-41
2022/03/27 02:49:16;;;;;;;21.65;15.10;;;9.60;98.40;;;;;;5115701;28;20028;-40
2022/03/27 02:51:44;;;;;;;25.02;15.32;;;9.50;98.80;;;;;;5097133;28;20026;-42
2022/03/27 02:54:10;;;;;;;21.35;14.80;;;9.50;98.80;;;;;;5115197;28;20023;-41
2022/03/27 02:56:35;;;;;;;27.85;14.90;;;9.40;99.00;;;;;;5115040;28;20034;-43
2022/03/27 02:59:01;;;;;;;21.52;13.70;;;9.30;99.30;;;;;;5115001;28;20107;-44
2022/03/27 03:01:26;;;;;;;23.00;15.05;;;9.30;99.40;;;;;;5115224;28;20482;-44
2022/03/27 03:03:52;;;;;;;22.83;15.40;;;9.20;99.60;;;;;;5115107;28;20070;-44
2022/03/27 03:06:20;;;;;;;25.42;15.20;;;9.20;99.90;;;;;;5096680;28;20051;-41
2022/03/27 03:08:46;;;;;;;22.30;15.98;;;9.10;99.90;;;;;;5114012;28;20024;-45
2022/03/27 03:11:13;;;;;;;26.67;16.52;;;9.10;99.90;;;;;;5114881;28;20023;-42
2022/03/27 03:13:39;;;;;;;25.85;16.20;;;9.10;99.90;;;;;;5114936;28;20019;-41
2022/03/27 03:16:06;;;;;;;27.77;15.98;;;9.10;99.90;;;;;;5114760;28;20104;-43
2022/03/27 03:18:34;;;;;;;23.30;14.93;;;9.10;99.90;;;;;;5095547;28;20024;-44
2022/03/27 03:20:59;;;;;;;24.50;16.17;;;9.10;99.90;;;;;;5114746;28;20518;-41
2022/03/27 03:23:25;;;;;;;23.10;15.18;;;9.00;99.90;;;;;;5096527;28;20055;-44
2022/03/27 03:25:50;;;;;;;26.05;16.00;;;9.10;99.90;;;;;;5114643;28;20398;-42
2022/03/27 03:28:16;;;;;;;21.90;15.57;;;9.00;99.90;;;;;;5095869;28;20027;-44
2022/03/27 03:30:41;;;;;;;24.05;15.32;;;9.10;99.90;;;;;;5114530;28;20030;-43
2022/03/27 03:33:07;;;;;;;25.45;17.02;;;9.10;99.90;;;;;;5114564;28;20025;-41
2022/03/27 03:35:34;;;;;;;21.25;15.35;;;9.00;99.90;;;;;;5114442;28;20107;-42
2022/03/27 03:37:59;;;;;;;25.38;16.38;;;9.00;99.90;;;;;;5114173;28;20147;-43
2022/03/27 03:40:25;;;;;;;24.08;16.60;;;9.00;99.90;;;;;;5114497;28;20063;-41
2022/03/27 03:42:51;;;;;;;25.15;15.60;;;8.90;99.90;;;;;;5114275;28;20043;-42
2022/03/27 03:45:18;;;;;;;25.25;15.90;;;8.90;99.90;;;;;;5114197;28;20031;-43
2022/03/27 03:47:44;;;;;;;24.02;16.70;;;8.90;99.90;;;;;;5113756;28;20030;-41
2022/03/27 03:50:10;;;;;;;29.25;16.17;;;8.80;99.90;;;;;;5114244;28;20020;-41
2022/03/27 03:52:35;;;;;;;25.75;15.90;;;8.80;99.90;;;;;;5114398;28;20024;-42
2022/03/27 03:55:02;;;;;;;23.30;16.60;;;8.80;99.90;;;;;;5114701;28;20020;-40
2022/03/27 03:57:27;;;;;;;28.38;17.17;;;8.80;99.90;;;;;;5113617;28;20100;-44
2022/03/27 03:59:53;;;;;;;23.85;16.40;;;8.80;99.90;;;;;;5114008;28;20591;-42
2022/03/27 04:02:18;;;;;;;28.52;17.30;;;8.80;99.90;;;;;;5114191;28;20399;-41
2022/03/27 04:04:44;;;;;;;24.55;16.17;;;8.90;99.90;;;;;;5114066;28;20061;-41
2022/03/27 04:07:09;;;;;;;33.92;17.70;;;8.90;99.90;;;;;;5113472;28;20164;-40
2022/03/27 04:09:35;;;;;;;25.65;17.67;;;8.90;99.90;;;;;;5113377;28;20028;-41
2022/03/27 04:12:01;;;;;;;26.33;16.88;;;8.90;99.90;;;;;;5113746;28;20417;-42
2022/03/27 04:14:29;;;;;;;36.10;18.10;;;8.90;99.90;;;;;;5113992;28;20026;-42
2022/03/27 04:16:56;;;;;;;25.42;17.85;;;8.90;99.90;;;;;;5113654;28;20032;-41
2022/03/27 04:19:22;;;;;;;24.15;16.00;;;8.90;99.90;;;;;;5113944;28;20472;-42
2022/03/27 04:21:47;;;;;;;24.90;16.40;;;8.80;99.90;;;;;;5114201;28;20108;-41
2022/03/27 04:24:13;;;;;;;28.50;17.00;;;8.90;99.90;;;;;;5095915;28;20630;-44
2022/03/27 04:26:41;;;;;;;25.55;16.67;;;8.80;99.90;;;;;;5095529;28;20051;-43
2022/03/27 04:29:07;;;;;;;28.13;18.42;;;8.80;99.90;;;;;;5095428;28;20028;-43
2022/03/27 04:31:33;;;;;;;28.92;17.42;;;8.70;99.90;;;;;;5113167;28;20502;-42
2022/03/27 04:33:59;;;;;;;28.85;17.92;;;8.70;99.90;;;;;;5113682;28;20102;-41
2022/03/27 04:36:25;;;;;;;26.88;18.05;;;8.70;99.90;;;;;;5095171;28;20019;-42
2022/03/27 04:38:50;;;;;;;27.58;17.52;;;8.60;99.90;;;;;;5094784;28;20375;-41
2022/03/27 04:41:16;;;;;;;25.15;16.73;;;8.70;99.90;;;;;;5113126;28;20028;-42
2022/03/27 04:43:46;;;;;;;31.05;18.42;;;8.70;99.90;;;;;;5113390;28;20394;-43
2022/03/27 04:46:12;;;;;;;27.05;17.92;;;8.70;99.90;;;;;;5114185;28;20024;-42
2022/03/27 04:48:38;;;;;;;30.20;17.70;;;8.60;99.90;;;;;;5113898;28;20035;-41
2022/03/27 04:51:03;;;;;;;28.88;18.00;;;8.60;99.90;;;;;;5095723;28;20080;-41
2022/03/27 04:53:29;;;;;;;28.88;18.85;;;8.60;99.90;;;;;;5095625;28;20023;-42
2022/03/27 04:55:54;;;;;;;29.15;18.85;;;8.60;99.90;;;;;;5113607;28;20394;-43
2022/03/27 04:58:20;;;;;;;25.30;17.75;;;8.60;99.90;;;;;;5094601;28;20020;-44
2022/03/27 05:00:46;;;;;;;33.28;18.50;;;8.60;99.90;;;;;;5112897;28;20023;-42
2022/03/27 05:03:11;;;;;;;29.67;17.98;;;8.50;99.90;;;;;;5113047;28;20055;-41
2022/03/27 05:05:38;;;;;;;23.38;17.05;;;8.50;99.90;;;;;;5113071;28;20402;-42
2022/03/27 05:08:04;;;;;;;29.08;18.15;;;8.50;99.90;;;;;;5094685;28;20024;-42
2022/03/27 05:10:29;;;;;;;28.75;18.65;;;8.50;99.90;;;;;;5113748;28;20030;-42
2022/03/27 05:12:56;;;;;;;25.83;18.13;;;8.50;99.90;;;;;;5113007;28;20023;-42
2022/03/27 05:15:22;;;;;;;29.83;17.65;;;8.50;99.90;;;;;;5113454;28;20027;-42
2022/03/27 05:17:58;;;;;;;25.88;17.52;;;8.50;99.90;;;;;;5094643;28;20080;-44
2022/03/27 05:20:29;;;;;;;26.60;18.63;;;8.60;99.90;;;;;;5113110;28;20032;-43
2022/03/27 05:22:56;;;;;;;26.85;17.85;;;8.70;99.90;;;;;;5113171;28;20030;-43
2022/03/27 05:25:21;;;;;;;25.50;18.35;;;8.70;99.90;;;;;;5113017;28;20065;-45
2022/03/27 05:27:50;;;;;;;32.47;18.92;;;8.60;99.90;;;;;;5112047;28;20074;-43
2022/03/27 05:30:17;;;;;;;30.45;19.23;;;8.50;99.90;;;;;;5113005;28;20024;-41
2022/03/27 05:32:43;;;;;;;29.25;19.33;;;8.50;99.90;;;;;;5112815;28;20031;-42
2022/03/27 05:35:09;;;;;;;30.83;20.23;;;8.40;99.90;;;;;;5112972;28;20024;-42
2022/03/27 05:37:36;;;;;;;33.13;18.88;;;8.40;99.90;;;;;;5112266;28;20069;-41
2022/03/27 05:40:03;;;;;;;30.77;19.25;;;8.40;99.90;;;;;;5094326;28;20029;-43
2022/03/27 05:42:29;;;;;;;32.08;18.33;;;8.50;99.90;;;;;;5094305;28;20034;-42
2022/03/27 05:44:54;;;;;;;28.48;18.52;;;8.60;99.90;;;;;;5112812;28;20024;-41
2022/03/27 05:47:20;;;;;;;29.77;19.45;;;8.70;99.90;;;;;;5112426;28;20043;-41
2022/03/27 05:49:47;;;;;;;29.40;19.23;;;8.80;99.90;;;;;;5112233;28;20042;-42
2022/03/27 05:52:14;;;;;;;28.77;18.42;;;8.90;99.90;;;;;;5112686;28;20347;-42
2022/03/27 05:54:40;;;;;;;25.92;18.05;;;9.00;99.90;;;;;;5112781;28;20069;-43
2022/03/27 05:57:06;;;;;;;25.00;18.13;;;9.10;99.90;;;;;;5111849;28;20025;-42
2022/03/27 05:59:31;;;;;;;32.95;19.13;;;9.30;99.90;;;;;;5112566;28;20024;-42
2022/03/27 06:01:57;;;;;;;27.27;18.92;;;9.50;99.90;;;;;;5111836;28;20038;-41
2022/03/27 06:04:22;;;;;;;30.75;19.05;;;9.60;99.90;;;;;;5112048;28;20386;-41
2022/03/27 06:06:48;;;;;;;27.33;17.58;;;9.60;99.90;;;;;;5111638;28;20020;-44
2022/03/27 06:09:13;;;;;;;30.13;19.50;;;9.50;99.90;;;;;;5111531;28;20015;-43
2022/03/27 06:11:39;;;;;;;29.38;19.27;;;9.70;99.90;;;;;;5111815;28;20098;-42
2022/03/27 06:14:04;;;;;;;29.92;18.70;;;9.90;99.90;;;;;;5111883;28;20534;-44
2022/03/27 06:16:30;;;;;;;30.83;18.67;;;10.10;99.90;;;;;;5093482;28;20031;-42
2022/03/27 06:18:56;;;;;;;30.98;18.67;;;10.10;99.90;;;;;;5093279;28;20114;-46
2022/03/27 06:21:21;;;;;;;28.55;19.45;;;10.20;99.90;;;;;;5111710;28;20027;-42
2022/03/27 06:23:47;;;;;;;33.67;19.42;;;10.30;99.90;;;;;;5111646;28;20020;-42
2022/03/27 06:26:12;;;;;;;29.27;18.52;;;10.40;99.90;;;;;;5112026;28;20042;-43
2022/03/27 06:28:38;;;;;;;29.15;18.90;;;10.50;99.90;;;;;;5111300;28;20224;-44
2022/03/27 06:31:04;;;;;;;26.38;17.77;;;10.50;99.90;;;;;;5111930;28;20106;-43
2022/03/27 06:33:29;;;;;;;31.33;18.48;;;10.70;99.90;;;;;;5111859;28;20027;-44
2022/03/27 06:35:55;;;;;;;35.03;19.20;;;10.70;99.90;;;;;;5111614;28;20031;-42
2022/03/27 06:38:21;;;;;;;28.13;17.40;;;10.90;99.90;;;;;;5111353;28;20058;-44
2022/03/27 06:40:46;;;;;;;30.08;18.70;;;11.00;99.90;;;;;;5111591;28;20019;-41
2022/03/27 06:43:12;;;;;;;26.77;17.10;;;11.20;99.90;;;;;;5093294;28;20130;-42
2022/03/27 06:45:38;;;;;;;25.33;18.10;;;11.50;99.90;;;;;;5111666;28;20023;-42
2022/03/27 06:48:05;;;;;;;29.70;18.80;;;11.50;99.90;;;;;;5111354;28;20024;-42
2022/03/27 06:50:30;;;;;;;32.38;19.20;;;11.70;99.90;;;;;;5111490;28;20027;-41
2022/03/27 06:52:56;;;;;;;23.77;16.85;;;11.80;99.90;;;;;;5093247;28;20027;-44
2022/03/27 06:55:22;;;;;;;25.65;17.38;;;11.80;99.90;;;;;;5114730;28;20179;-42
2022/03/27 06:57:48;;;;;;;27.42;17.08;;;12.10;99.90;;;;;;5114821;28;20080;-41
2022/03/27 07:03:01;;;;;;;33.50;16.87;;;13.20;99.10;;;;;;5115244;28;20401;-44
2022/03/27 07:05:28;;;;;;;26.80;17.55;;;13.50;98.50;;;;;;5114960;28;20743;-40
2022/03/27 07:07:53;;;;;;;26.75;17.63;;;13.40;98.40;;;;;;5113870;28;20114;-44
2022/03/27 07:10:19;;;;;;;28.13;17.42;;;13.50;98.60;;;;;;5114951;28;20099;-45
2022/03/27 07:12:46;;;;;;;26.52;17.20;;;13.50;98.40;;;;;;5114875;28;20051;-43
2022/03/27 07:15:11;;;;;;;27.75;16.58;;;13.30;98.70;;;;;;5115178;28;20043;-42
2022/03/27 07:17:46;;;;;;;26.70;17.08;;;13.50;98.70;;;;;;5114324;28;20032;-44
2022/03/27 07:20:12;;;;;;;26.10;16.65;;;13.90;98.00;;;;;;5114781;28;20507;-43
2022/03/27 07:22:39;;;;;;;27.27;16.30;;;14.40;97.30;;;;;;5114815;28;20027;-45
2022/03/27 07:25:07;;;;;;;24.30;16.58;;;14.70;96.30;;;;;;5114768;28;20529;-45
2022/03/27 07:27:33;;;;;;;26.45;17.83;;;15.00;96.30;;;;;;5114204;28;20177;-41
2022/03/27 07:29:58;;;;;;;24.35;16.00;;;15.60;94.60;;;;;;5096462;28;20097;-42
2022/03/27 07:32:24;;;;;;;22.88;17.35;;;15.80;94.10;;;;;;5114613;28;20012;-43
2022/03/27 07:34:49;;;;;;;20.23;15.88;;;15.70;94.00;;;;;;5096173;28;20019;-41
2022/03/27 07:37:15;;;;;;;24.00;15.60;;;15.80;93.50;;;;;;5113972;28;20016;-43
2022/03/27 07:39:41;;;;;;;19.48;14.93;;;15.70;93.70;;;;;;5114511;28;20285;-44
2022/03/27 07:42:07;;;;;;;22.42;16.33;;;15.60;93.60;;;;;;5114219;28;20023;-42
2022/03/27 07:44:33;;;;;;;21.88;15.93;;;15.30;94.10;;;;;;5114399;28;20026;-42
2022/03/27 07:46:59;;;;;;;23.17;14.50;;;15.30;94.30;;;;;;5114092;28;20016;-46
2022/03/27 07:49:26;;;;;;;22.98;14.63;;;15.60;93.90;;;;;;5114199;28;20037;-42
2022/03/27 07:51:53;;;;;;;19.88;15.27;;;15.90;93.50;;;;;;5095862;28;20027;-43
2022/03/27 07:54:19;;;;;;;25.38;16.08;;;15.90;93.30;;;;;;5114109;28;20023;-43
2022/03/27 07:56:44;;;;;;;21.23;14.23;;;16.20;92.60;;;;;;5114089;28;20050;-43
2022/03/27 07:59:10;;;;;;;18.60;13.88;;;16.70;92.10;;;;;;5114040;28;20044;-45
2022/03/27 08:01:35;;;;;;;21.52;13.50;;;16.80;91.50;;;;;;5114000;28;20158;-45
2022/03/27 08:04:01;;;;;;;20.55;14.50;;;17.10;91.70;;;;;;5113951;28;20475;-43
2022/03/27 08:06:26;;;;;;;19.48;13.82;;;17.20;90.60;;;;;;5113750;28;20424;-43
2022/03/27 08:08:52;;;;;;;19.90;14.23;;;17.40;90.60;;;;;;5113251;28;20042;-47
2022/03/27 08:11:18;;;;;;;19.58;14.02;;;17.40;90.10;;;;;;5114277;28;20085;-43
2022/03/27 08:13:43;;;;;;;21.00;14.27;;;17.00;90.30;;;;;;5113723;28;20043;-43
2022/03/27 08:16:09;;;;;;;22.30;15.10;;;16.20;91.50;;;;;;5113677;28;20521;-43
2022/03/27 08:18:34;;;;;;;19.73;14.60;;;16.00;92.40;;;;;;5113493;28;20448;-45
2022/03/27 08:21:00;;;;;;;24.67;15.15;;;16.30;92.10;;;;;;5113781;28;20032;-46
2022/03/27 08:23:26;;;;;;;21.05;13.88;;;16.20;92.10;;;;;;5113647;28;20069;-46
2022/03/27 08:28:36;;;;;;;25.55;14.73;;;15.40;93.40;;;;;;5134500;22;20043;-44
2022/03/27 08:31:02;;;;;;;21.58;14.68;;;15.10;94.30;;;;;;5114750;28;20395;-48
2022/03/27 08:33:27;;;;;;;21.45;15.10;;;15.00;94.90;;;;;;5114541;28;20499;-45
2022/03/27 08:35:53;;;;;;;18.55;14.45;;;14.70;95.20;;;;;;5114198;28;20114;-39
2022/03/27 08:38:20;;;;;;;19.88;14.00;;;14.60;96.00;;;;;;5114071;28;20056;-44
2022/03/27 08:40:47;;;;;;;19.90;14.82;;;14.60;95.80;;;;;;5113994;28;20457;-42
2022/03/27 08:43:15;;;;;;;20.75;14.85;;;14.40;96.50;;;;;;5114224;28;20022;-43
2022/03/27 08:45:42;;;;;;;19.88;14.90;;;14.30;96.60;;;;;;5114440;28;20088;-44
2022/03/27 08:48:08;;;;;;;23.83;15.65;;;14.30;96.80;;;;;;5113772;28;20383;-42
2022/03/27 08:50:47;;;;;;;23.63;15.25;;;14.20;96.90;;;;;;5114492;28;20107;-46
2022/03/27 08:53:13;;;;;;;22.63;14.48;;;14.30;97.30;;;;;;5113828;28;20080;-44
2022/03/27 08:55:39;;;;;;;17.60;13.60;;;14.80;96.80;;;;;;5114081;28;20474;-45
2022/03/27 08:58:07;;;;;;;21.23;13.82;;;15.90;95.40;;;;;;5113585;28;20110;-39
2022/03/27 09:00:33;;;;;;;18.83;13.45;;;17.00;93.00;;;;;;5113951;28;20470;-39
2022/03/27 09:03:01;;;;;;;20.08;13.40;;;17.80;91.20;;;;;;5114075;28;20031;-46
2022/03/27 09:05:29;;;;;;;18.52;13.82;;;18.10;90.30;;;;;;5113388;28;20040;-45
2022/03/27 09:07:56;;;;;;;19.30;14.13;;;18.70;88.30;;;;;;5113090;28;20015;-43
2022/03/27 09:10:24;;;;;;;22.25;13.77;;;19.30;86.50;;;;;;5114168;28;20023;-40
2022/03/27 09:12:53;;;;;;;17.08;12.75;;;19.70;84.20;;;;;;5113866;28;20023;-44
2022/03/27 09:15:23;;;;;;;17.65;12.80;;;20.00;82.40;;;;;;5095725;28;20426;-46
2022/03/27 09:18:08;;;;;;;15.32;12.88;;;19.70;82.80;;;;;;5112714;28;20479;-45
2022/03/27 09:20:46;;;;;;;19.23;13.55;;;20.00;80.40;;;;;;5113750;28;20038;-45
2022/03/27 09:23:20;;;;;;;21.90;13.23;;;20.60;79.90;;;;;;5113667;28;20023;-46
2022/03/27 09:25:48;;;;;;;18.38;14.32;;;20.70;78.30;;;;;;5113753;28;20015;-40
2022/03/27 09:28:28;;;;;;;15.43;12.10;;;20.60;77.60;;;;;;5095009;28;20038;-47
2022/03/27 09:30:55;;;;;;;19.80;12.90;;;20.70;76.30;;;;;;5113371;28;20028;-45
2022/03/27 09:33:31;;;;;;;17.70;12.93;;;21.10;75.80;;;;;;5113703;28;20080;-44
2022/03/27 09:36:11;;;;;;;22.35;13.50;;;21.10;75.50;;;;;;5095090;28;20111;-46
2022/03/27 09:38:38;;;;;;;20.08;13.32;;;20.60;74.80;;;;;;5113162;28;20106;-40
2022/03/27 09:41:04;;;;;;;17.58;13.63;;;20.40;74.80;;;;;;5095041;28;20035;-47
2022/03/27 09:43:30;;;;;;;17.73;13.93;;;20.20;75.50;;;;;;5113347;28;20025;-46
2022/03/27 09:46:02;;;;;;;22.08;13.80;;;19.70;77.10;;;;;;5114508;28;20107;-45
2022/03/27 09:48:28;;;;;;;22.42;14.00;;;19.80;78.20;;;;;;5115259;28;20509;-45
2022/03/27 09:50:58;;;;;;;22.40;14.60;;;19.90;77.90;;;;;;5114235;28;20100;-39
2022/03/27 09:53:26;;;;;;;16.33;13.30;;;19.70;77.40;;;;;;5114016;28;20448;-45
2022/03/27 09:55:56;;;;;;;16.80;13.00;;;19.70;78.20;;;;;;5113205;28;20035;-46
2022/03/27 09:58:39;;;;;;;25.08;13.52;;;19.90;76.60;;;;;;5113074;28;20019;-47
2022/03/27 10:01:08;;;;;;;19.75;13.38;;;19.80;77.00;;;;;;5113282;28;20024;-42
2022/03/27 10:03:34;;;;;;;19.45;13.15;;;19.70;76.90;;;;;;5113979;28;20024;-44
2022/03/27 10:06:02;;;;;;;16.63;11.68;;;19.80;76.60;;;;;;5113519;28;20031;-45
2022/03/27 10:08:27;;;;;;;18.27;13.25;;;19.90;76.30;;;;;;5112698;28;20053;-47
2022/03/27 10:10:54;;;;;;;19.02;13.07;;;19.90;75.00;;;;;;5113109;28;20482;-48
2022/03/27 10:13:22;;;;;;;15.13;11.73;;;19.90;75.80;;;;;;5112839;28;20020;-46
2022/03/27 10:15:54;;;;;;;17.63;12.80;;;19.90;75.00;;;;;;5112574;28;20020;-41
2022/03/27 10:18:21;;;;;;;21.02;13.30;;;19.70;75.40;;;;;;5112307;28;20024;-42
2022/03/27 10:20:54;;;;;;;17.90;12.68;;;19.70;76.60;;;;;;5112920;28;20016;-42
2022/03/27 10:23:23;;;;;;;36.83;13.68;;;19.70;73.00;;;;;;5113027;28;20019;-44
2022/03/27 10:25:52;;;;;;;20.30;13.68;;;19.70;74.20;;;;;;5112555;28;20098;-42
2022/03/27 10:28:20;;;;;;;22.30;13.48;;;19.60;74.50;;;;;;5112701;28;20151;-38
2022/03/27 10:30:48;;;;;;;15.75;12.05;;;19.40;75.50;;;;;;5116864;28;20077;-42
2022/03/27 10:33:14;;;;;;;18.67;13.25;;;19.30;75.70;;;;;;5117208;28;20047;-45
2022/03/27 10:36:05;;;;;;;17.02;11.57;;;19.30;75.70;;;;;;5116820;28;20024;-47
2022/03/27 10:38:55;;;;;;;21.17;12.00;;;19.10;73.80;;;;;;5116513;28;20056;-38
2022/03/27 10:41:42;;;;;;;22.00;12.52;;;19.10;74.00;;;;;;5116826;28;20034;-38
2022/03/27 10:44:31;;;;;;;21.42;12.45;;;19.00;74.80;;;;;;5116957;28;20391;-38
2022/03/27 10:47:19;;;;;;;19.52;11.52;;;19.00;74.30;;;;;;5116701;28;20019;-47
2022/03/27 10:50:05;;;;;;;16.15;11.38;;;18.90;74.60;;;;;;5098610;28;20020;-45
2022/03/27 10:52:57;;;;;;;16.17;11.43;;;18.60;73.90;;;;;;5116559;28;20027;-43
2022/03/27 10:55:34;;;;;;;21.35;12.40;;;18.80;74.20;;;;;;5099038;28;20026;-43
2022/03/27 10:57:59;;;;;;;16.20;10.50;;;18.80;74.80;;;;;;5116732;28;20468;-45
2022/03/27 11:00:41;;;;;;;15.27;10.63;;;19.00;73.40;;;;;;5117190;28;20023;-39
2022/03/27 11:03:07;;;;;;;14.73;11.05;;;19.10;72.90;;;;;;5117433;28;20552;-43
2022/03/27 11:05:35;;;;;;;16.05;10.15;;;19.20;72.70;;;;;;5117753;28;20024;-43
2022/03/27 11:08:19;;;;;;;20.85;11.00;;;19.10;72.70;;;;;;5118308;28;20016;-44
2022/03/27 11:10:52;;;;;;;12.80;8.88;;;18.80;73.00;;;;;;5118807;28;20019;-45
2022/03/27 11:13:26;;;;;;;16.73;10.18;;;18.80;72.70;;;;;;5118138;28;20057;-45
2022/03/27 11:16:09;;;;;;;15.33;9.00;;;18.90;73.20;;;;;;5117736;28;20049;-42
2022/03/27 11:18:36;;;;;;;13.27;10.55;;;18.90;72.90;;;;;;5116980;28;20363;-41
2022/03/27 11:21:03;;;;;;;18.95;10.10;;;18.90;73.90;;;;;;5118406;28;20414;-44
2022/03/27 11:23:31;;;;;;;20.98;10.57;;;18.80;75.70;;;;;;5118837;28;20383;-44
2022/03/27 11:25:58;;;;;;;16.33;8.98;;;18.70;74.70;;;;;;5118333;28;20079;-43
2022/03/27 11:28:26;;;;;;;10.45;8.23;;;18.80;74.30;;;;;;5116107;28;20291;-44
2022/03/27 11:31:12;;;;;;;12.40;7.93;;;18.90;73.80;;;;;;5117277;28;20024;-47
2022/03/27 11:33:37;;;;;;;11.02;6.28;;;19.10;72.20;;;;;;5116494;28;20097;-45
2022/03/27 11:36:09;;;;;;;18.75;10.02;;;19.20;70.20;;;;;;5116512;28;20050;-46
2022/03/27 11:38:35;;;;;;;13.93;6.78;;;19.10;69.60;;;;;;5115737;28;20120;-44
2022/03/27 11:41:22;;;;;;;10.40;7.25;;;19.20;70.80;;;;;;5115656;28;20073;-39
2022/03/27 11:43:50;;;;;;;9.75;7.20;;;19.20;70.40;;;;;;5116381;28;20023;-40
2022/03/27 11:46:25;;;;;;;11.02;8.07;;;19.20;71.20;;;;;;5115985;28;20031;-44
2022/03/27 11:49:01;;;;;;;10.95;6.55;;;19.00;69.70;;;;;;5115515;28;20501;-43
2022/03/27 11:51:28;;;;;;;8.80;5.75;;;18.80;68.60;;;;;;5118010;28;20039;-41
2022/03/27 11:53:55;;;;;;;9.30;6.35;;;18.80;69.60;;;;;;5117538;28;20077;-40
2022/03/27 11:56:21;;;;;;;12.20;6.35;;;18.80;68.60;;;;;;5115831;28;20038;-45
2022/03/27 11:59:16;;;;;;;10.93;7.25;;;18.80;69.80;;;;;;5115421;28;20080;-44
2022/03/27 12:01:41;;;;;;;11.18;7.85;;;18.80;70.40;;;;;;5102129;28;20032;-44
2022/03/27 12:04:07;;;;;;;12.25;7.65;;;18.90;70.80;;;;;;5115079;28;20424;-49
2022/03/27 12:06:33;;;;;;;12.43;7.28;;;18.90;70.40;;;;;;5096309;28;20058;-44
2022/03/27 12:08:58;;;;;;;10.90;6.97;;;18.80;71.00;;;;;;5114185;28;20103;-40
2022/03/27 12:11:28;;;;;;;12.05;8.65;;;18.80;71.10;;;;;;5115536;28;20034;-47
2022/03/27 12:13:56;;;;;;;14.77;8.27;;;18.70;71.40;;;;;;5115307;28;20027;-44
2022/03/27 12:16:26;;;;;;;12.95;8.13;;;18.60;71.60;;;;;;5115409;28;20118;-45
2022/03/27 12:18:53;;;;;;;12.50;8.18;;;18.60;72.10;;;;;;5114497;28;20366;-40
2022/03/27 12:21:23;;;;;;;9.35;7.28;;;18.70;72.00;;;;;;5114841;28;20028;-46
2022/03/27 12:23:55;;;;;;;11.75;8.65;;;18.70;70.80;;;;;;5114382;28;20026;-44
2022/03/27 12:32:12;;;;;;;10.93;7.93;;;18.70;72.60;;;;;;5114561;28;20105;-48
2022/03/27 12:34:49;;;;;;;11.20;8.47;;;18.90;70.50;;;;;;5114539;28;20051;-40
2022/03/27 12:37:20;;;;;;;13.75;8.30;;;19.00;71.60;;;;;;5113786;28;20024;-46
2022/03/27 12:39:49;;;;;;;11.25;7.47;;;19.00;72.00;;;;;;5114043;28;20028;-46
2022/03/27 12:42:32;;;;;;;14.85;7.78;;;19.00;70.90;;;;;;5114028;28;20031;-46
2022/03/27 12:45:17;;;;;;;10.05;7.00;;;19.10;71.30;;;;;;5114098;28;20028;-46
2022/03/27 12:47:50;;;;;;;9.77;7.13;;;19.00;71.80;;;;;;5113536;28;20020;-47
2022/03/27 12:50:27;;;;;;;9.55;6.47;;;18.90;71.70;;;;;;5113717;28;20250;-44